x

East Dellwood (46207) Wave Buoy

4:00am - Wed 23rd Jul 2014 All times are PDT. -7 hours from GMT.

  • Sig Wave height 4.6ft
  • Peak Period 9s
  • Wind
    16mph, 18mph gusts
  • Sea Temp 59°f
  • Air Temp 58°f
  • Sea Pressure 1017.9mb
  • East Dellwood
  • East Dellwood

More Historic Weather Station data

Upgrade to MSW Pro to gain access to the past 30 days of data for over 8000 Wavebouys and Weather Stations around the globe.

Join Pro

Comparision Forecast

View Surf forecast
   
Wed 07/23 4:00am 4.5ft 9s 16 18 mph 1017.9mb 59f 58f
3:00am 4.5ft 8s 13
mph
1018.3mb 59f 58f
2:00am 4.5ft 9s 11 13 mph 1018.3mb 59f 58f
1:00am 4.5ft 8s 9 13 mph 1018.6mb 59f 57f
12:00am 4.5ft 8s 13 16 mph 1018.7mb 60f 57f
Tue 07/22 11:00pm 4.5ft 8s 9 11 mph 1018.8mb 60f 57f
10:00pm 4.5ft 8s 7 9 mph 1018.7mb 61f 57f
9:00pm 5ft 8s 7 9 mph 1018.5mb 60f 58f
8:00pm 5ft 9s 4
mph
1018.6mb 62f 59f
7:00pm 5ft 8s 7 9 mph 1018.5mb 61f 59f
6:00pm 5ft 9s 4 7 mph 1018.3mb 60f 59f
5:00pm 5ft 8s  -  2 mph 1018.1mb 61f 60f
4:00pm 5ft 9s 4 7 mph 1018.2mb 61f 60f
3:00pm 5ft 8s 2 4 mph 1017.7mb 60f 60f
2:00pm 5ft 9s 2
mph
1017.2mb 60f 59f
1:00pm 5ft 8s 7
mph
1016.6mb 60f 58f
12:00pm 5ft 8s 4 7 mph 1016.1mb 59f 59f
11:00am 5ft 9s 7 9 mph 1015.4mb 59f 58f
10:00am 5ft 9s 4 7 mph 1014.9mb 58f 58f
9:00am 5.5ft 9s 4 7 mph 1014.7mb 58f 58f
8:00am 5.5ft 8s 4 7 mph 1014.4mb 58f 58f
7:00am 5.5ft 8s 4 7 mph 1013.9mb 58f 58f
6:00am 6ft 8s 7 9 mph 1013.4mb 58f 58f
5:00am 6ft 9s 7
mph
1013.2mb 58f 58f
4:00am 6ft 8s 9
mph
1013.2mb 58f 58f
3:00am 6ft 9s 9 11 mph 1013.1mb 58f 57f
2:00am 5.5ft 8s 9
mph
1013.1mb 58f 58f
1:00am 5.5ft 7s 9
mph
1012.9mb 58f 57f
12:00am 5.5ft 8s 9
mph
1012.7mb 58f 58f
Mon 07/21 11:00pm 5ft 8s 11 13 mph 1012.3mb 58f 58f
10:00pm 5ft 8s 16 18 mph 1012.1mb 58f 57f
9:00pm 5ft 8s 16 18 mph 1012mb 58f 57f
8:00pm 5ft 7s 13 16 mph 1012.1mb 58f 56f
7:00pm 6ft 7s 18 22 mph 1012.2mb 58f 57f
6:00pm 6ft 6s 18 22 mph 1012.3mb 58f 56f
5:00pm 5.5ft 7s 20 22 mph 1012.6mb 58f 56f
4:00pm 5.5ft 6s 20 27 mph 1012.7mb 59f 56f
3:00pm 5.5ft 5s 16 20 mph 1013.2mb 59f 55f
2:00pm 5.5ft 9s 18 20 mph 1013.1mb 59f 55f
1:00pm 5.5ft 9s 18 20 mph 1013mb 59f 55f
12:00pm 6ft 10s 18 22 mph 1013mb 59f 56f
11:00am 5ft 10s 22 27 mph 1012.8mb 59f 56f
10:00am  -   -  20
mph
- - -
9:00am 4.5ft 10s 18 20 mph 1013.1mb 59f 57f
8:00am 5ft 10s 13 16 mph 1013.3mb 59f 56f
7:00am 4.5ft 10s 20 25 mph 1013.4mb 59f 57f
6:00am 4.5ft 8s 18 22 mph 1013.6mb 59f 58f
5:00am 5ft 9s 11 13 mph 1014.1mb 59f 57f
4:00am 5ft 9s 13 16 mph 1014.3mb 59f 57f
3:00am 5ft 11s 13 20 mph 1014.6mb 59f 58f
2:00am 5ft 9s 13 18 mph 1015.1mb 59f 58f
1:00am 5ft 10s 11 16 mph 1015.6mb 59f 58f
12:00am 5.5ft 11s 11 13 mph 1015.6mb 59f 58f
Sun 07/20 11:00pm 6ft 10s 11 13 mph 1015.7mb 59f 58f
10:00pm 6ft 10s 11 13 mph 1015.9mb 59f 58f
9:00pm 5.5ft 10s 11
mph
1015.7mb 59f 58f
8:00pm 6ft 10s 13 16 mph 1016.1mb 59f 58f
7:00pm 6ft 11s 13 16 mph 1016.3mb 59f 58f
6:00pm 6ft 10s 9 13 mph 1016.5mb 59f 58f
5:00pm 6ft 11s 11 13 mph 1016.8mb 59f 58f
4:00pm 6ft 10s 13 16 mph 1017mb 59f 58f
3:00pm 6.5ft 10s 11 13 mph 1016.9mb 59f 58f
2:00pm 6.5ft 11s 13 16 mph 1017mb 59f 58f
12:00pm 7ft 8s 16 20 mph 1016.7mb 58f 58f
11:00am 7ft 10s 16 18 mph 1016.4mb 58f 58f
10:00am 8ft 11s 18 22 mph 1016.1mb 58f 58f
9:00am 8ft 10s 18 22 mph 1015.9mb 58f 58f
8:00am 8ft 11s 18 22 mph 1015.7mb 58f 58f
7:00am 8ft 11s 18 22 mph 1015.5mb 58f 58f
6:00am 8.5ft 11s 16 20 mph 1015.6mb 58f 58f
5:00am 9ft 11s 18 20 mph 1015.4mb 58f 58f
4:00am 8.5ft 8s 16 20 mph 1015.3mb 58f 57f
3:00am 9ft 10s 16 18 mph 1015.3mb 58f 58f
2:00am 8ft 10s 16 20 mph 1015.4mb 58f 58f
12:00am 8ft 12s 20 22 mph 1015.2mb 58f 58f
Sat 07/19 11:00pm 8.5ft 11s 18 22 mph 1015.2mb 58f 58f
10:00pm 8ft 10s 18 20 mph 1015.2mb 58f 58f
9:00pm 8ft 10s 13 16 mph 1015.1mb 58f 58f
8:00pm 8ft 11s 13 18 mph 1015.1mb 59f 58f
7:00pm 8.5ft 9s 13 16 mph 1015mb 59f 58f
6:00pm 9ft 10s 13 16 mph 1015.2mb 59f 59f
5:00pm 9ft 10s 13 18 mph 1014.9mb 59f 59f
4:00pm  -   -  13
mph
1015.2mb - 59f
3:00pm 9ft 10s 13 16 mph 1015.1mb 59f 58f
2:00pm 9ft 10s 13 16 mph 1014.8mb 58f 58f
1:00pm 8ft 11s 18 20 mph 1014.7mb 58f 57f